Time;durP1;ratioP1;P1;durP2;ratioP2;P2;SDS_P1;SDS_P2;PMS_P1;PMS_P2;Temp;Humidity;BMP_temperature;BMP_pressure;BME280_temperature;BME280_humidity;BME280_pressure;Samples;Min_cycle;Max_cycle;Signal;HPM_P1;HPM_P2
2022/07/24 00:00:19;;;;;;;12.27;5.65;;;;;;;;;;4980766;28;20047;-70
2022/07/24 00:03:02;;;;;;;20.13;5.85;;;;;;;;;;4978224;28;20074;-71
2022/07/24 00:05:29;;;;;;;7.28;5.40;;;;;;;;;;4979269;28;20505;-73
2022/07/24 00:07:54;;;;;;;8.35;5.57;;;;;;;;;;4983434;28;20939;-70
2022/07/24 00:10:20;;;;;;;8.25;5.90;;;;;;;;;;4982272;28;20065;-71
2022/07/24 00:12:46;;;;;;;12.32;6.15;;;;;;;;;;4980893;28;20088;-69
2022/07/24 00:15:12;;;;;;;9.60;5.68;;;;;;;;;;4985936;28;20066;-68
2022/07/24 00:17:38;;;;;;;7.93;5.65;;;;;;;;;;4979613;28;20046;-70
2022/07/24 00:20:06;;;;;;;7.00;5.38;;;;;;;;;;4979188;28;20050;-71
2022/07/24 00:22:31;;;;;;;8.20;5.18;;;;;;;;;;4979420;28;20036;-71
2022/07/24 00:24:57;;;;;;;13.90;5.82;;;;;;;;;;4982170;28;20061;-71
2022/07/24 00:27:23;;;;;;;8.70;5.72;;;;;;;;;;4981819;28;20046;-72
2022/07/24 00:29:49;;;;;;;9.15;5.38;;;;;;;;;;4981342;28;20042;-71
2022/07/24 00:32:15;;;;;;;10.32;5.30;;;;;;;;;;4981902;28;20050;-71
2022/07/24 00:34:41;;;;;;;7.47;5.20;;;;;;;;;;4977474;28;20554;-71
2022/07/24 00:37:07;;;;;;;7.55;5.07;;;;;;;;;;4980457;28;20043;-71
2022/07/24 00:39:33;;;;;;;9.85;5.20;;;;;;;;;;4981773;28;20061;-71
2022/07/24 00:41:59;;;;;;;8.77;5.20;;;;;;;;;;4979306;28;20466;-70
2022/07/24 00:44:25;;;;;;;10.98;4.90;;;;;;;;;;4977631;28;20065;-70
2022/07/24 00:46:51;;;;;;;10.23;4.93;;;;;;;;;;4979320;28;20042;-72
2022/07/24 00:49:19;;;;;;;8.55;5.22;;;;;;;;;;4980034;28;20053;-70
2022/07/24 00:51:47;;;;;;;9.63;5.55;;;;;;;;;;4979154;28;20137;-71
2022/07/24 00:54:14;;;;;;;8.43;5.30;;;;;;;;;;4981518;28;20517;-71
2022/07/24 00:56:45;;;;;;;7.63;4.95;;;;;;;;;;4993328;28;20042;-70
2022/07/24 00:59:11;;;;;;;9.98;4.85;;;;;;;;;;4981033;28;20070;-70
2022/07/24 01:01:37;;;;;;;11.10;4.97;;;;;;;;;;4980392;28;20057;-72
2022/07/24 01:04:03;;;;;;;8.40;5.10;;;;;;;;;;4978116;28;20055;-69
2022/07/24 01:06:29;;;;;;;10.18;4.97;;;;;;;;;;4982826;28;20058;-69
2022/07/24 01:08:55;;;;;;;5.82;4.72;;;;;;;;;;4980589;28;20051;-71
2022/07/24 01:11:22;;;;;;;7.00;5.32;;;;;;;;;;4979403;28;20077;-68
2022/07/24 01:13:48;;;;;;;8.25;5.28;;;;;;;;;;4979792;28;20095;-69
2022/07/24 01:16:15;;;;;;;6.70;4.78;;;;;;;;;;4978466;28;20042;-71
2022/07/24 01:18:41;;;;;;;7.45;5.03;;;;;;;;;;4979624;28;20570;-72
2022/07/24 01:21:07;;;;;;;9.20;4.93;;;;;;;;;;4983989;28;20055;-70
2022/07/24 01:23:34;;;;;;;7.13;4.90;;;;;;;;;;4980735;28;20058;-70
2022/07/24 01:26:00;;;;;;;8.55;4.60;;;;;;;;;;4979492;28;20963;-69
2022/07/24 01:28:26;;;;;;;8.00;4.78;;;;;;;;;;4980607;28;20074;-70
2022/07/24 01:30:52;;;;;;;8.77;4.82;;;;;;;;;;4981632;28;20183;-71
2022/07/24 01:33:19;;;;;;;9.88;5.07;;;;;;;;;;4980892;28;20073;-69
2022/07/24 01:35:45;;;;;;;7.47;4.40;;;;;;;;;;4982800;28;20046;-75
2022/07/24 01:38:13;;;;;;;7.45;4.97;;;;;;;;;;4988071;28;20047;-71
2022/07/24 01:40:39;;;;;;;7.80;4.88;;;;;;;;;;4983677;28;20065;-70
2022/07/24 01:43:06;;;;;;;6.22;5.05;;;;;;;;;;4982088;28;20447;-69
2022/07/24 01:45:31;;;;;;;10.60;5.30;;;;;;;;;;4981126;28;20489;-70
2022/07/24 01:47:58;;;;;;;9.00;5.47;;;;;;;;;;4988207;28;20050;-74
2022/07/24 01:50:24;;;;;;;8.68;5.20;;;;;;;;;;4979669;28;20057;-68
2022/07/24 01:52:49;;;;;;;9.00;5.07;;;;;;;;;;4977828;28;20072;-70
2022/07/24 01:55:15;;;;;;;9.20;5.50;;;;;;;;;;4980734;28;20416;-70
2022/07/24 01:57:41;;;;;;;11.23;5.63;;;;;;;;;;4981440;28;20095;-69
2022/07/24 02:00:12;;;;;;;12.07;5.70;;;;;;;;;;4979349;28;20085;-72
2022/07/24 02:02:39;;;;;;;12.68;5.60;;;;;;;;;;4979588;28;20050;-69
2022/07/24 02:05:06;;;;;;;12.32;6.25;;;;;;;;;;4977293;28;20473;-69
2022/07/24 02:07:32;;;;;;;9.68;5.50;;;;;;;;;;4980685;28;20042;-69
2022/07/24 02:09:58;;;;;;;8.38;5.50;;;;;;;;;;4981203;28;20439;-70
2022/07/24 02:12:24;;;;;;;7.88;5.63;;;;;;;;;;4974841;28;20046;-69
2022/07/24 02:14:50;;;;;;;8.95;5.32;;;;;;;;;;4978098;28;20047;-69
2022/07/24 02:17:16;;;;;;;9.98;5.78;;;;;;;;;;4978945;28;20387;-69
2022/07/24 02:19:41;;;;;;;8.65;5.78;;;;;;;;;;4980793;28;20048;-68
2022/07/24 02:22:07;;;;;;;10.50;6.38;;;;;;;;;;4978469;28;20078;-69
2022/07/24 02:24:33;;;;;;;10.27;6.00;;;;;;;;;;4979419;28;20068;-68
2022/07/24 02:26:59;;;;;;;10.25;6.55;;;;;;;;;;4980667;28;20058;-73
2022/07/24 02:29:24;;;;;;;9.60;6.18;;;;;;;;;;4981842;28;20047;-68
2022/07/24 02:31:50;;;;;;;9.30;5.90;;;;;;;;;;4981573;28;20413;-70
2022/07/24 02:34:16;;;;;;;9.75;5.53;;;;;;;;;;4983954;28;20050;-69
2022/07/24 02:36:42;;;;;;;12.25;6.05;;;;;;;;;;4984861;28;20555;-71
2022/07/24 02:39:08;;;;;;;16.50;6.18;;;;;;;;;;4986077;28;20582;-70
2022/07/24 02:41:34;;;;;;;10.65;5.82;;;;;;;;;;4987913;28;20212;-69
2022/07/24 02:43:59;;;;;;;8.68;6.00;;;;;;;;;;4984142;28;20050;-70
2022/07/24 02:46:25;;;;;;;11.55;6.32;;;;;;;;;;4983870;28;20073;-70
2022/07/24 02:48:51;;;;;;;13.10;6.55;;;;;;;;;;4981789;28;20107;-70
2022/07/24 02:51:17;;;;;;;10.98;5.97;;;;;;;;;;4981058;28;20169;-69
2022/07/24 02:53:43;;;;;;;14.10;6.22;;;;;;;;;;4976255;28;20047;-69
2022/07/24 02:56:08;;;;;;;13.88;6.13;;;;;;;;;;4980257;28;20038;-69
2022/07/24 02:58:35;;;;;;;12.60;6.20;;;;;;;;;;4981082;28;20058;-70
2022/07/24 03:01:00;;;;;;;9.85;6.57;;;;;;;;;;4981403;28;20120;-70
2022/07/24 03:03:26;;;;;;;12.43;5.97;;;;;;;;;;4982335;28;20054;-69
2022/07/24 03:05:52;;;;;;;8.60;5.68;;;;;;;;;;4979702;28;20137;-68
2022/07/24 03:08:18;;;;;;;7.95;6.15;;;;;;;;;;4983811;28;20478;-70
2022/07/24 03:10:44;;;;;;;7.57;5.75;;;;;;;;;;4980537;28;20151;-69
2022/07/24 03:13:10;;;;;;;13.07;6.05;;;;;;;;;;4976917;28;20508;-69
2022/07/24 03:15:36;;;;;;;11.43;6.28;;;;;;;;;;4982118;28;20062;-69
2022/07/24 03:18:02;;;;;;;10.10;6.70;;;;;;;;;;4982753;28;20061;-69
2022/07/24 03:20:29;;;;;;;8.32;6.40;;;;;;;;;;4980507;28;20058;-70
2022/07/24 03:22:55;;;;;;;12.65;6.72;;;;;;;;;;4979295;28;20583;-68
2022/07/24 03:25:21;;;;;;;7.72;6.15;;;;;;;;;;4982847;28;20543;-69
2022/07/24 03:27:48;;;;;;;11.35;6.35;;;;;;;;;;4982089;28;20047;-70
2022/07/24 03:30:15;;;;;;;10.43;7.20;;;;;;;;;;4981968;28;20237;-70
2022/07/24 03:32:41;;;;;;;9.25;6.45;;;;;;;;;;4983986;28;20056;-70
2022/07/24 03:35:07;;;;;;;11.18;6.57;;;;;;;;;;4980746;28;20040;-73
2022/07/24 03:37:34;;;;;;;8.40;6.88;;;;;;;;;;4983204;28;20402;-69
2022/07/24 03:39:59;;;;;;;10.75;6.97;;;;;;;;;;4979142;28;20066;-69
2022/07/24 03:42:25;;;;;;;10.50;7.28;;;;;;;;;;4981279;28;20050;-68
2022/07/24 03:44:51;;;;;;;8.88;6.95;;;;;;;;;;4984132;28;20047;-68
2022/07/24 03:47:17;;;;;;;8.82;6.93;;;;;;;;;;4981134;28;20045;-70
2022/07/24 03:49:43;;;;;;;11.88;7.15;;;;;;;;;;4980328;28;20047;-69
2022/07/24 03:52:09;;;;;;;11.35;6.97;;;;;;;;;;4979586;28;20058;-68
2022/07/24 03:54:35;;;;;;;9.50;6.53;;;;;;;;;;4980156;28;20057;-73
2022/07/24 03:57:01;;;;;;;12.75;6.40;;;;;;;;;;4981991;28;20050;-69
2022/07/24 03:59:27;;;;;;;14.30;7.68;;;;;;;;;;4981789;28;20050;-69
2022/07/24 04:01:52;;;;;;;9.93;6.53;;;;;;;;;;4980893;28;20046;-71
2022/07/24 04:04:18;;;;;;;11.75;7.32;;;;;;;;;;4978595;28;20041;-70
2022/07/24 04:06:44;;;;;;;12.80;6.72;;;;;;;;;;4981363;28;20046;-69
2022/07/24 04:09:10;;;;;;;12.43;7.20;;;;;;;;;;4981726;28;20077;-69
2022/07/24 04:11:36;;;;;;;11.07;6.30;;;;;;;;;;4982061;28;20057;-69
2022/07/24 04:14:02;;;;;;;13.82;6.90;;;;;;;;;;4979985;28;20054;-70
2022/07/24 04:16:28;;;;;;;8.55;6.82;;;;;;;;;;4980479;28;20050;-68
2022/07/24 04:18:53;;;;;;;9.10;6.03;;;;;;;;;;4982286;28;20517;-72
2022/07/24 04:21:20;;;;;;;13.63;6.95;;;;;;;;;;4985113;28;20102;-70
2022/07/24 04:23:45;;;;;;;10.30;6.82;;;;;;;;;;4982052;28;20133;-70
2022/07/24 04:26:11;;;;;;;8.55;6.43;;;;;;;;;;4983419;28;20149;-69
2022/07/24 04:28:37;;;;;;;8.95;6.63;;;;;;;;;;4982191;28;20086;-73
2022/07/24 04:31:03;;;;;;;9.88;6.60;;;;;;;;;;4981565;28;20042;-71
2022/07/24 04:33:29;;;;;;;10.88;6.55;;;;;;;;;;4978912;28;20046;-72
2022/07/24 04:35:55;;;;;;;9.45;6.32;;;;;;;;;;4983820;28;20062;-70
2022/07/24 04:38:20;;;;;;;9.00;6.20;;;;;;;;;;4984144;28;20046;-70
2022/07/24 04:40:46;;;;;;;10.32;6.28;;;;;;;;;;4982931;28;20050;-67
2022/07/24 04:43:12;;;;;;;14.05;6.47;;;;;;;;;;4983091;28;20042;-69
2022/07/24 04:45:38;;;;;;;12.38;7.43;;;;;;;;;;4982558;28;20043;-69
2022/07/24 04:48:04;;;;;;;13.65;6.40;;;;;;;;;;4979525;28;20054;-69
2022/07/24 04:50:31;;;;;;;9.20;6.28;;;;;;;;;;4980069;28;20058;-68
2022/07/24 04:52:56;;;;;;;10.18;6.40;;;;;;;;;;4980213;28;20065;-69
2022/07/24 04:55:22;;;;;;;11.68;6.55;;;;;;;;;;4983529;28;20053;-69
2022/07/24 04:57:48;;;;;;;7.57;6.43;;;;;;;;;;4983549;28;20506;-69
2022/07/24 05:00:14;;;;;;;7.95;6.05;;;;;;;;;;4984671;28;20107;-68
2022/07/24 05:02:40;;;;;;;9.90;6.65;;;;;;;;;;4981623;28;20042;-68
2022/07/24 05:05:07;;;;;;;13.10;6.47;;;;;;;;;;4979733;28;20050;-70
2022/07/24 05:07:32;;;;;;;9.50;6.30;;;;;;;;;;4980148;28;20085;-72
2022/07/24 05:09:58;;;;;;;9.82;6.38;;;;;;;;;;4979130;28;20126;-68
2022/07/24 05:12:25;;;;;;;11.50;6.75;;;;;;;;;;4976863;28;20062;-71
2022/07/24 05:14:51;;;;;;;10.15;6.32;;;;;;;;;;4977739;28;20485;-69
2022/07/24 05:17:17;;;;;;;10.30;6.32;;;;;;;;;;4978309;28;20039;-69
2022/07/24 05:19:43;;;;;;;8.98;6.28;;;;;;;;;;4979192;28;20092;-71
2022/07/24 05:22:09;;;;;;;15.75;6.80;;;;;;;;;;4976981;28;20039;-71
2022/07/24 05:24:35;;;;;;;8.32;6.38;;;;;;;;;;4995920;28;20578;-71
2022/07/24 05:27:01;;;;;;;10.93;6.97;;;;;;;;;;4981053;28;20538;-69
2022/07/24 05:29:27;;;;;;;10.77;6.50;;;;;;;;;;4981870;28;20327;-71
2022/07/24 05:31:54;;;;;;;7.18;6.38;;;;;;;;;;4979744;28;20141;-69
2022/07/24 05:34:23;;;;;;;9.30;6.25;;;;;;;;;;4979719;28;20046;-68
2022/07/24 05:36:49;;;;;;;13.38;7.88;;;;;;;;;;4978997;28;20543;-71
2022/07/24 05:39:14;;;;;;;12.65;6.95;;;;;;;;;;4980786;28;20069;-70
2022/07/24 05:41:40;;;;;;;11.90;6.88;;;;;;;;;;4979049;28;20050;-69
2022/07/24 05:44:06;;;;;;;10.18;6.25;;;;;;;;;;4983371;28;20050;-74
2022/07/24 05:46:32;;;;;;;9.73;6.40;;;;;;;;;;4982988;28;20047;-70
2022/07/24 05:48:58;;;;;;;9.20;6.65;;;;;;;;;;4980267;28;20150;-70
2022/07/24 05:51:25;;;;;;;7.75;6.13;;;;;;;;;;4980913;28;20081;-70
2022/07/24 05:53:51;;;;;;;9.85;6.47;;;;;;;;;;4978201;28;20043;-71
2022/07/24 05:56:18;;;;;;;9.15;6.50;;;;;;;;;;4982875;28;20062;-70
2022/07/24 05:58:44;;;;;;;9.52;6.32;;;;;;;;;;4977885;28;20077;-70
2022/07/24 06:01:09;;;;;;;7.80;6.60;;;;;;;;;;4976092;28;20520;-71
2022/07/24 06:03:36;;;;;;;8.80;6.80;;;;;;;;;;4978783;28;20062;-71
2022/07/24 06:06:04;;;;;;;10.55;6.38;;;;;;;;;;4983878;28;20050;-70
2022/07/24 06:08:30;;;;;;;8.23;6.93;;;;;;;;;;4985045;28;20055;-68
2022/07/24 06:10:56;;;;;;;12.63;6.72;;;;;;;;;;4982342;28;20413;-71
2022/07/24 06:13:22;;;;;;;8.50;6.40;;;;;;;;;;4981184;28;20073;-78
2022/07/24 06:15:48;;;;;;;10.88;6.65;;;;;;;;;;4984413;28;20101;-75
2022/07/24 06:18:14;;;;;;;9.02;6.57;;;;;;;;;;4983604;28;20050;-76
2022/07/24 06:20:40;;;;;;;8.40;6.45;;;;;;;;;;4987979;28;20050;-74
2022/07/24 06:23:06;;;;;;;17.20;6.90;;;;;;;;;;4984068;28;20517;-73
2022/07/24 06:25:32;;;;;;;10.75;7.13;;;;;;;;;;4984363;28;20505;-76
2022/07/24 06:27:58;;;;;;;9.20;6.70;;;;;;;;;;4973365;28;20055;-73
2022/07/24 06:30:26;;;;;;;8.70;6.43;;;;;;;;;;4983857;28;20797;-72
2022/07/24 06:32:57;;;;;;;10.88;6.97;;;;;;;;;;4978147;28;20698;-74
2022/07/24 06:35:25;;;;;;;11.02;6.65;;;;;;;;;;4978780;28;20057;-74
2022/07/24 06:37:51;;;;;;;8.82;6.38;;;;;;;;;;4980117;28;20629;-70
2022/07/24 06:40:18;;;;;;;13.35;7.55;;;;;;;;;;4980848;28;20058;-73
2022/07/24 06:42:46;;;;;;;16.67;9.20;;;;;;;;;;4979793;28;20062;-71
2022/07/24 06:45:12;;;;;;;12.10;8.00;;;;;;;;;;4984846;28;20104;-72
2022/07/24 06:47:38;;;;;;;7.95;7.07;;;;;;;;;;4981838;28;20486;-72
2022/07/24 06:50:05;;;;;;;15.52;7.22;;;;;;;;;;4979380;28;20554;-74
2022/07/24 06:52:31;;;;;;;12.90;7.47;;;;;;;;;;4982519;28;20054;-73
2022/07/24 06:54:57;;;;;;;12.10;7.82;;;;;;;;;;4985264;28;20424;-69
2022/07/24 06:57:25;;;;;;;11.35;7.80;;;;;;;;;;4982689;28;20584;-74
2022/07/24 06:59:52;;;;;;;10.68;7.03;;;;;;;;;;4982906;28;20039;-71
2022/07/24 07:02:19;;;;;;;11.00;7.72;;;;;;;;;;4981189;28;20055;-71
2022/07/24 07:04:45;;;;;;;11.88;7.15;;;;;;;;;;4984091;28;20137;-73
2022/07/24 07:07:11;;;;;;;10.50;6.93;;;;;;;;;;4984231;28;20129;-71
2022/07/24 07:09:37;;;;;;;15.20;7.63;;;;;;;;;;4982502;28;20106;-72
2022/07/24 07:12:04;;;;;;;11.98;7.10;;;;;;;;;;4980696;28;20482;-71
2022/07/24 07:14:30;;;;;;;11.07;6.43;;;;;;;;;;4976518;28;20050;-72
2022/07/24 07:16:56;;;;;;;12.10;6.88;;;;;;;;;;4979703;28;20131;-71
2022/07/24 07:19:22;;;;;;;8.70;6.80;;;;;;;;;;4980265;28;20050;-72
2022/07/24 07:21:47;;;;;;;11.98;7.35;;;;;;;;;;4978503;28;20049;-73
2022/07/24 07:24:13;;;;;;;11.88;7.22;;;;;;;;;;4978358;28;20051;-73
2022/07/24 07:26:39;;;;;;;9.65;6.65;;;;;;;;;;4977790;28;20059;-72
2022/07/24 07:29:05;;;;;;;8.13;6.80;;;;;;;;;;4981507;28;20050;-70
2022/07/24 07:31:31;;;;;;;13.57;6.60;;;;;;;;;;4981480;28;20098;-72
2022/07/24 07:33:57;;;;;;;10.73;7.07;;;;;;;;;;4974840;28;20050;-71
2022/07/24 07:36:24;;;;;;;11.70;6.47;;;;;;;;;;4978812;28;20047;-70
2022/07/24 07:38:50;;;;;;;11.30;6.22;;;;;;;;;;4980575;28;20050;-72
2022/07/24 07:41:19;;;;;;;13.10;5.75;;;;;;;;;;4977900;28;20054;-71
2022/07/24 07:43:48;;;;;;;9.43;5.25;;;;;;;;;;4977192;28;20046;-72
2022/07/24 07:46:14;;;;;;;16.42;6.43;;;;;;;;;;4978382;28;20046;-74
2022/07/24 07:48:40;;;;;;;10.38;6.15;;;;;;;;;;4980594;28;20051;-73
2022/07/24 07:51:06;;;;;;;16.23;5.97;;;;;;;;;;4981031;28;20047;-74
2022/07/24 07:53:32;;;;;;;8.65;5.75;;;;;;;;;;4984050;28;20062;-74
2022/07/24 07:55:58;;;;;;;9.13;5.93;;;;;;;;;;4985107;28;20524;-75
2022/07/24 07:58:26;;;;;;;9.02;5.90;;;;;;;;;;4981278;28;20043;-74
2022/07/24 08:00:52;;;;;;;9.00;5.07;;;;;;;;;;4979229;28;20062;-75
2022/07/24 08:03:18;;;;;;;10.52;5.07;;;;;;;;;;4976001;28;20057;-73
2022/07/24 08:05:44;;;;;;;8.60;5.10;;;;;;;;;;4981657;28;20088;-74
2022/07/24 08:08:10;;;;;;;6.38;5.03;;;;;;;;;;4980667;28;20049;-73
2022/07/24 08:10:35;;;;;;;6.32;5.47;;;;;;;;;;4980113;28;20058;-77
2022/07/24 08:13:01;;;;;;;8.48;5.30;;;;;;;;;;4980279;28;20047;-76
2022/07/24 08:15:27;;;;;;;11.32;5.68;;;;;;;;;;4978554;28;20077;-72
2022/07/24 08:17:54;;;;;;;6.38;5.43;;;;;;;;;;4976971;28;20774;-71
2022/07/24 08:20:21;;;;;;;8.32;5.00;;;;;;;;;;4978457;28;20089;-71
2022/07/24 08:22:47;;;;;;;7.45;5.05;;;;;;;;;;4981387;28;20113;-73
2022/07/24 08:25:14;;;;;;;9.18;5.22;;;;;;;;;;4980526;28;20238;-70
2022/07/24 08:27:39;;;;;;;8.93;5.20;;;;;;;;;;4975769;28;20061;-74
2022/07/24 08:30:06;;;;;;;10.70;5.03;;;;;;;;;;4981090;28;20153;-73
2022/07/24 08:32:33;;;;;;;8.13;4.90;;;;;;;;;;4978119;28;20054;-73
2022/07/24 08:34:58;;;;;;;6.75;4.47;;;;;;;;;;4980223;28;20091;-71
2022/07/24 08:37:24;;;;;;;6.70;4.65;;;;;;;;;;4986639;28;20054;-69
2022/07/24 08:39:50;;;;;;;6.60;4.85;;;;;;;;;;4986542;28;20058;-69
2022/07/24 08:42:16;;;;;;;10.13;4.90;;;;;;;;;;4984511;28;20038;-67
2022/07/24 08:44:42;;;;;;;8.50;4.78;;;;;;;;;;4988816;28;20051;-76
2022/07/24 08:47:08;;;;;;;7.78;4.40;;;;;;;;;;4984661;28;20039;-73
2022/07/24 08:49:36;;;;;;;5.80;4.35;;;;;;;;;;4985659;28;20517;-71
2022/07/24 08:52:04;;;;;;;9.75;4.35;;;;;;;;;;4981208;28;20095;-68
2022/07/24 08:54:30;;;;;;;8.35;4.32;;;;;;;;;;4984977;28;20386;-68
2022/07/24 08:56:56;;;;;;;6.68;4.20;;;;;;;;;;4985291;28;20424;-68
2022/07/24 08:59:23;;;;;;;10.15;4.63;;;;;;;;;;4981956;28;20046;-73
2022/07/24 09:01:50;;;;;;;7.60;4.50;;;;;;;;;;4980147;28;20572;-72
2022/07/24 09:04:36;;;;;;;14.45;4.80;;;;;;;;;;4987170;28;20046;-75
2022/07/24 09:07:10;;;;;;;8.68;4.20;;;;;;;;;;4981922;28;20080;-72
2022/07/24 09:09:38;;;;;;;7.50;4.13;;;;;;;;;;4985052;28;20067;-76
2022/07/24 09:12:16;;;;;;;11.65;5.05;;;;;;;;;;4994211;28;20054;-70
2022/07/24 09:14:44;;;;;;;10.75;4.53;;;;;;;;;;4986361;28;20050;-75
2022/07/24 09:17:13;;;;;;;5.18;4.60;;;;;;;;;;4989860;28;20050;-73
2022/07/24 09:19:52;;;;;;;7.82;4.60;;;;;;;;;;4985424;28;20133;-76
2022/07/24 09:22:32;;;;;;;7.70;4.35;;;;;;;;;;4983715;28;20046;-74
2022/07/24 09:25:20;;;;;;;9.07;4.25;;;;;;;;;;4984549;28;20420;-73
2022/07/24 09:27:46;;;;;;;12.23;4.25;;;;;;;;;;4986624;28;20048;-77
2022/07/24 09:30:28;;;;;;;8.55;4.38;;;;;;;;;;4986886;28;20038;-71
2022/07/24 09:32:59;;;;;;;7.75;4.75;;;;;;;;;;4984946;28;20128;-73
2022/07/24 09:35:39;;;;;;;8.05;4.47;;;;;;;;;;4984042;28;20046;-75
2022/07/24 09:38:08;;;;;;;6.43;3.80;;;;;;;;;;4986472;28;20042;-77
2022/07/24 09:40:39;;;;;;;7.03;4.18;;;;;;;;;;4983052;28;20417;-75
2022/07/24 09:43:24;;;;;;;6.63;3.65;;;;;;;;;;4990091;28;20042;-71
2022/07/24 09:45:53;;;;;;;9.13;4.20;;;;;;;;;;4991905;28;20070;-75
2022/07/24 09:48:25;;;;;;;6.85;4.07;;;;;;;;;;4987784;28;20050;-73
2022/07/24 09:51:09;;;;;;;8.80;4.13;;;;;;;;;;4987798;28;20416;-77
2022/07/24 09:53:35;;;;;;;5.95;4.40;;;;;;;;;;4985779;28;20047;-73
2022/07/24 09:56:07;;;;;;;6.22;4.00;;;;;;;;;;4995672;28;20545;-72
2022/07/24 09:58:47;;;;;;;7.43;4.07;;;;;;;;;;4985897;28;20087;-75
2022/07/24 10:01:15;;;;;;;6.63;4.20;;;;;;;;;;4998934;28;20507;-72
2022/07/24 10:03:43;;;;;;;13.43;4.47;;;;;;;;;;4997719;28;20043;-79
2022/07/24 10:06:12;;;;;;;8.93;4.68;;;;;;;;;;4999296;28;20049;-72
2022/07/24 10:08:40;;;;;;;8.30;4.70;;;;;;;;;;4986246;28;20058;-79
2022/07/24 10:11:07;;;;;;;7.72;4.60;;;;;;;;;;4986419;28;20050;-72
2022/07/24 10:13:33;;;;;;;11.25;4.32;;;;;;;;;;4986533;28;20485;-76
2022/07/24 10:15:59;;;;;;;9.27;4.85;;;;;;;;;;5085519;28;20046;-78
2022/07/24 10:18:51;;;;;;;11.38;5.28;;;;;;;;;;4983151;28;20057;-75
2022/07/24 10:21:23;;;;;;;8.43;4.55;;;;;;;;;;4984035;28;20142;-77
2022/07/24 10:24:06;;;;;;;10.15;4.80;;;;;;;;;;4990736;28;20525;-79
2022/07/24 10:26:41;;;;;;;8.57;4.32;;;;;;;;;;4982973;28;20047;-78
2022/07/24 10:29:17;;;;;;;10.10;4.97;;;;;;;;;;4983430;28;20095;-79
2022/07/24 10:31:48;;;;;;;7.53;4.65;;;;;;;;;;4984077;28;20485;-76
2022/07/24 10:34:23;;;;;;;6.30;4.30;;;;;;;;;;4987325;28;20042;-81
2022/07/24 10:37:11;;;;;;;8.25;4.07;;;;;;;;;;4983322;28;20050;-79
2022/07/24 10:40:05;;;;;;;6.45;3.97;;;;;;;;;;4982150;28;20050;-76
2022/07/24 10:42:32;;;;;;;10.00;4.20;;;;;;;;;;4984923;28;20057;-80
2022/07/24 10:45:18;;;;;;;6.10;3.97;;;;;;;;;;4986049;28;20051;-78
2022/07/24 10:47:46;;;;;;;10.88;4.35;;;;;;;;;;4984238;28;20465;-80
2022/07/24 10:50:14;;;;;;;7.35;4.13;;;;;;;;;;4987050;28;20107;-79
2022/07/24 10:52:41;;;;;;;6.68;3.83;;;;;;;;;;4990806;28;20046;-79
2022/07/24 10:55:32;;;;;;;7.93;4.18;;;;;;;;;;4990416;28;20481;-80
2022/07/24 10:58:01;;;;;;;5.82;3.70;;;;;;;;;;4985734;28;20042;-79
2022/07/24 11:00:36;;;;;;;7.07;3.88;;;;;;;;;;4988816;28;20050;-78
2022/07/24 11:03:07;;;;;;;6.63;3.53;;;;;;;;;;4980200;28;20046;-79
2022/07/24 11:05:39;;;;;;;4.80;3.30;;;;;;;;;;4987383;28;20046;-78
2022/07/24 11:08:29;;;;;;;7.97;3.65;;;;;;;;;;4987927;28;20053;-74
2022/07/24 11:10:59;;;;;;;6.22;3.40;;;;;;;;;;4989966;28;20046;-72
2022/07/24 11:13:31;;;;;;;5.07;3.42;;;;;;;;;;4987816;28;20046;-68
2022/07/24 11:16:15;;;;;;;5.15;3.53;;;;;;;;;;4987331;28;20468;-69
2022/07/24 11:18:47;;;;;;;6.03;3.80;;;;;;;;;;4978479;28;20057;-70
2022/07/24 11:21:36;;;;;;;7.10;3.53;;;;;;;;;;4988357;28;20516;-70
2022/07/24 11:24:15;;;;;;;6.20;3.85;;;;;;;;;;4992779;28;20066;-78
2022/07/24 11:26:49;;;;;;;6.55;4.10;;;;;;;;;;5000320;28;20046;-80
2022/07/24 11:29:23;;;;;;;6.85;4.03;;;;;;;;;;5013957;28;20071;-71
2022/07/24 11:31:50;;;;;;;;;;;;;;;;;;4993519;28;20038;-73
2022/07/24 11:34:15;;;;;;;;;;;;;;;;;;4998475;28;19913;-81
2022/07/24 11:36:43;;;;;;;;;;;;;;;;;;5000090;28;20451;-72
2022/07/24 11:39:09;;;;;;;;;;;;;;;;;;5000018;28;19925;-74
2022/07/24 11:41:45;;;;;;;;;;;;;;;;;;5000179;28;19990;-82
2022/07/24 11:44:11;;;;;;;;;;;;;;;;;;4994099;28;19928;-82
2022/07/24 11:46:39;;;;;;;;;;;;;;;;;;4999328;28;20000;-76
2022/07/24 11:49:09;;;;;;;;;;;;;;;;;;4996571;28;19988;-80
2022/07/24 11:51:44;;;;;;;;;;;;;;;;;;4997799;28;19922;-73
2022/07/24 11:54:14;;;;;;;;;;;;;;;;;;4998113;28;19926;-76
2022/07/24 11:56:40;;;;;;;;;;;;;;;;;;4992104;28;19922;-80
2022/07/24 11:59:05;;;;;;;;;;;;;;;;;;4991405;28;19932;-74
2022/07/24 12:01:31;;;;;;;;;;;;;;;;;;4990584;28;19960;-74
2022/07/24 12:03:58;;;;;;;;;;;;;;;;;;4988571;28;19928;-84
2022/07/24 12:06:25;;;;;;;;;;;;;;;;;;4988778;28;19943;-76
2022/07/24 12:08:51;;;;;;;;;;;;;;;;;;4986182;28;19930;-76
2022/07/24 12:11:23;;;;;;;;;;;;;;;;;;4986511;28;19922;-81
2022/07/24 12:13:49;;;;;;;;;;;;;;;;;;4986494;28;20423;-74
2022/07/24 12:16:25;;;;;;;;;;;;;;;;;;4987232;28;20276;-70
2022/07/24 12:18:51;;;;;;;;;;;;;;;;;;4985914;28;19929;-76
2022/07/24 12:21:18;;;;;;;;;;;;;;;;;;4988813;28;19925;-73
2022/07/24 12:23:46;;;;;;;;;;;;;;;;;;4990330;28;19928;-80
2022/07/24 12:26:12;;;;;;;;;;;;;;;;;;4995590;28;19929;-74
2022/07/24 12:28:38;;;;;;;;;;;;;;;;;;4993752;28;19926;-73
2022/07/24 12:31:10;;;;;;;;;;;;;;;;;;4984122;28;19930;-74
2022/07/24 12:33:36;;;;;;;;;;;;;;;;;;4986162;28;19928;-72
2022/07/24 12:36:10;;;;;;;;;;;;;;;;;;4989339;28;19926;-75
2022/07/24 12:38:37;;;;;;;;;;;;;;;;;;4993186;28;19932;-75
2022/07/24 12:41:07;;;;;;;;;;;;;;;;;;4989353;28;19929;-74
2022/07/24 12:43:45;;;;;;;;;;;;;;;;;;4994124;28;20024;-74
2022/07/24 12:46:11;;;;;;;;;;;;;;;;;;4988988;28;20392;-74
2022/07/24 12:48:37;;;;;;;;;;;;;;;;;;4985313;28;19968;-73
2022/07/24 12:51:05;;;;;;;;;;;;;;;;;;4987350;28;19969;-73
2022/07/24 12:53:32;;;;;;;;;;;;;;;;;;4986622;28;19925;-73
2022/07/24 12:56:01;;;;;;;;;;;;;;;;;;4985780;28;19928;-72
2022/07/24 12:58:26;;;;;;;;;;;;;;;;;;4987031;28;19996;-72
2022/07/24 13:00:56;;;;;;;;;;;;;;;;;;4984992;28;19968;-72
2022/07/24 13:03:25;;;;;;;;;;;;;;;;;;4986281;28;19961;-73
2022/07/24 13:05:54;;;;;;;;;;;;;;;;;;4989687;28;19942;-72
2022/07/24 13:08:20;;;;;;;;;;;;;;;;;;4990987;28;20273;-72
2022/07/24 13:10:45;;;;;;;;;;;;;;;;;;4986377;28;19932;-73
2022/07/24 13:13:11;;;;;;;;;;;;;;;;;;4988043;28;19922;-72
2022/07/24 13:15:37;;;;;;;;;;;;;;;;;;4988272;28;20342;-74
2022/07/24 13:18:03;;;;;;;;;;;;;;;;;;4999138;28;19922;-74
2022/07/24 13:20:28;;;;;;;;;;;;;;;;;;4992458;28;19921;-73
2022/07/24 13:22:54;;;;;;;;;;;;;;;;;;4989482;28;19932;-74
2022/07/24 13:25:20;;;;;;;;;;;;;;;;;;4988436;28;20381;-74
2022/07/24 13:27:45;;;;;;;;;;;;;;;;;;4991958;28;19944;-73
2022/07/24 13:30:12;;;;;;;;;;;;;;;;;;4991056;28;19975;-73
2022/07/24 13:32:37;;;;;;;;;;;;;;;;;;4989481;28;19935;-72
2022/07/24 13:35:03;;;;;;;;;;;;;;;;;;4985526;28;20336;-72
2022/07/24 13:37:29;;;;;;;;;;;;;;;;;;4987041;28;20376;-72
2022/07/24 13:39:54;;;;;;;;;;;;;;;;;;4987308;28;19953;-73
2022/07/24 13:42:20;;;;;;;;;;;;;;;;;;4987393;28;19922;-74
2022/07/24 13:44:47;;;;;;;;;;;;;;;;;;4986127;28;19926;-71
2022/07/24 13:47:13;;;;;;;;;;;;;;;;;;4985750;28;20004;-72
2022/07/24 13:49:39;;;;;;;;;;;;;;;;;;4985554;28;19925;-72
2022/07/24 13:52:05;;;;;;;;;;;;;;;;;;4986268;28;19921;-72
2022/07/24 13:54:31;;;;;;;;;;;;;;;;;;4987319;28;20020;-73
2022/07/24 13:56:57;;;;;;;;;;;;;;;;;;4988301;28;20004;-74
2022/07/24 13:59:23;;;;;;;;;;;;;;;;;;4987646;28;20015;-73
2022/07/24 14:01:49;;;;;;;;;;;;;;;;;;4988851;28;19953;-72
2022/07/24 14:04:14;;;;;;;;;;;;;;;;;;4989274;28;20325;-71
2022/07/24 14:06:40;;;;;;;;;;;;;;;;;;4985817;28;20387;-73
2022/07/24 14:09:07;;;;;;;;;;;;;;;;;;4985796;28;19928;-71
2022/07/24 14:11:33;;;;;;;;;;;;;;;;;;4984873;28;20327;-72
2022/07/24 14:13:59;;;;;;;;;;;;;;;;;;4985243;28;19922;-74
2022/07/24 14:16:25;;;;;;;;;;;;;;;;;;5086344;28;20353;-72
2022/07/24 14:18:51;;;;;;;;;;;;;;;;;;4984752;28;20394;-72
2022/07/24 14:21:16;;;;;;;;;;;;;;;;;;4984673;28;19932;-73
2022/07/24 14:23:42;;;;;;;;;;;;;;;;;;4988819;28;19974;-73
2022/07/24 14:26:08;;;;;;;;;;;;;;;;;;4991089;28;19957;-74
2022/07/24 14:28:34;;;;;;;;;;;;;;;;;;4991870;28;19929;-73
2022/07/24 14:30:59;;;;;;;;;;;;;;;;;;4994854;28;19928;-72
2022/07/24 14:33:25;;;;;;;;;;;;;;;;;;4993132;28;20372;-76
2022/07/24 14:35:51;;;;;;;;;;;;;;;;;;4991316;28;19944;-76
2022/07/24 14:38:17;;;;;;;;;;;;;;;;;;4975278;28;19930;-77
2022/07/24 14:40:42;;;;;;;;;;;;;;;;;;4991946;28;20017;-77
2022/07/24 14:43:08;;;;;;;;;;;;;;;;;;4991999;28;19969;-76
2022/07/24 14:45:37;;;;;;;;;;;;;;;;;;4990628;28;19928;-79
2022/07/24 14:48:03;;;;;;;;;;;;;;;;;;4990711;28;20288;-78
2022/07/24 14:50:29;;;;;;;;;;;;;;;;;;4990899;28;19966;-77
2022/07/24 14:52:55;;;;;;;;;;;;;;;;;;4991498;28;19925;-74
2022/07/24 14:55:20;;;;;;;;;;;;;;;;;;4990299;28;19922;-77
2022/07/24 14:57:46;;;;;;;;;;;;;;;;;;4991602;28;19928;-76
2022/07/24 15:00:12;;;;;;;;;;;;;;;;;;4985103;28;20362;-77
2022/07/24 15:02:38;;;;;;;;;;;;;;;;;;4989718;28;19922;-75
2022/07/24 15:05:04;;;;;;;;;;;;;;;;;;4990536;28;20029;-78
2022/07/24 15:07:30;;;;;;;;;;;;;;;;;;4993038;28;19922;-77